Hauptseite
METAR-TAF:

METAR-TAF

Flughäfen :

Flughafen Linz

Linz, Österreich

Breite: 48-14N, Länge: 014-11E, Höhe: 298 m

Beobachtung

Neuester Wetterbericht von vor 40 Minuten, um 03:50 UTC
Wind 2 kt aus Nord/Nordwest
Temperatur -7°C
Luftfeuchtigkeit 86%
Luftdruck 1020 hPa
Sichtweite: 9000 m

METAR: LOWL 210350Z AUTO 33002KT 9000 NSC M07/M09 Q1020

Zeit: 05:30 (04:30 UTC)

Prognose

Neuester Wetterbericht von vor 5 Stunden und 15 Minuten, um 23:15 UTC
Gültige Prognose vom 21 um 00 UTC bis 21 um 24 UTC
Wind 2 kt aus unterschiedlichen Richtungen
Sichtweite 10 km oder mehr
Durchbrochene Bewölkung in der Höhe von 2500 ft
Zeitweise
vom 21 um 00 UTC bis 21 um 06 UTC
Durchbrochene Bewölkung in der Höhe von 1200 ft
Zeitweise
vom 21 um 18 UTC bis 21 um 24 UTC
Durchbrochene Bewölkung in der Höhe von 1200 ft

TAF: LOWL 202315Z 2100/2124 VRB02KT 9999 BKN025 TXM02/2114Z TNM06/2106Z TEMPO 2100/2106 BKN012 TEMPO 2118/2124 BKN012

Wetterbeobachtungen und Prognosen von mehr als 4000 Flughäfen (METAR und TAF Bericht).

Die verfügbaren Stationen werden durch gelbe und rote Markierungen auf der Karte dargestellt.

Führen Sie die Maus auf sie, um den Namen der Station zu sehen.

Darauf klicken, um die Beobachtung von Wetterbeobachtungen und Prognosen zu sehen.

Um die Karte zu ändern : klicken Sie auf den grünen Tasten mit einem schwarzen Kreuz Zum Vergrößern, auf den grünen Button mit einem Gedankenstrich zu verkleinern, oder auf die grünen Pfeile für benachbarte Karten.


METAR-TAF: